sensor_id;sensor_type;location;lat;lon;timestamp;P1;durP1;ratioP1;P2;durP2;ratioP2
13816;SDS011;6979;52.116;5.286;2023-05-24T00:00:53;3.10;;;2.07;;
13816;SDS011;6979;52.116;5.286;2023-05-24T00:03:20;6.13;;;2.53;;
13816;SDS011;6979;52.116;5.286;2023-05-24T00:05:46;3.40;;;2.13;;
13816;SDS011;6979;52.116;5.286;2023-05-24T00:08:13;4.10;;;2.70;;
13816;SDS011;6979;52.116;5.286;2023-05-24T00:10:41;3.77;;;2.60;;
13816;SDS011;6979;52.116;5.286;2023-05-24T00:13:07;4.53;;;3.33;;
13816;SDS011;6979;52.116;5.286;2023-05-24T00:15:36;4.97;;;2.60;;
13816;SDS011;6979;52.116;5.286;2023-05-24T00:18:02;4.40;;;2.37;;
13816;SDS011;6979;52.116;5.286;2023-05-24T00:20:29;3.93;;;2.17;;
13816;SDS011;6979;52.116;5.286;2023-05-24T00:22:56;3.07;;;2.10;;
13816;SDS011;6979;52.116;5.286;2023-05-24T00:25:23;2.83;;;2.50;;
13816;SDS011;6979;52.116;5.286;2023-05-24T00:27:51;7.33;;;2.50;;
13816;SDS011;6979;52.116;5.286;2023-05-24T00:30:18;5.07;;;2.50;;
13816;SDS011;6979;52.116;5.286;2023-05-24T00:32:47;3.80;;;2.07;;
13816;SDS011;6979;52.116;5.286;2023-05-24T00:35:14;4.33;;;2.23;;
13816;SDS011;6979;52.116;5.286;2023-05-24T00:37:41;6.10;;;2.83;;
13816;SDS011;6979;52.116;5.286;2023-05-24T00:40:09;3.07;;;2.20;;
13816;SDS011;6979;52.116;5.286;2023-05-24T00:42:36;4.17;;;2.30;;
13816;SDS011;6979;52.116;5.286;2023-05-24T00:45:04;4.90;;;2.47;;
13816;SDS011;6979;52.116;5.286;2023-05-24T00:47:34;4.87;;;2.20;;
13816;SDS011;6979;52.116;5.286;2023-05-24T00:50:02;5.50;;;3.20;;
13816;SDS011;6979;52.116;5.286;2023-05-24T00:52:30;4.77;;;2.63;;
13816;SDS011;6979;52.116;5.286;2023-05-24T00:54:57;3.57;;;2.40;;
13816;SDS011;6979;52.116;5.286;2023-05-24T00:57:24;3.43;;;2.00;;
13816;SDS011;6979;52.116;5.286;2023-05-24T00:59:51;4.60;;;2.30;;
13816;SDS011;6979;52.116;5.286;2023-05-24T01:02:19;4.43;;;2.33;;
13816;SDS011;6979;52.116;5.286;2023-05-24T01:04:46;5.13;;;2.87;;
13816;SDS011;6979;52.116;5.286;2023-05-24T01:07:17;7.47;;;3.00;;
13816;SDS011;6979;52.116;5.286;2023-05-24T01:09:54;3.43;;;2.47;;
13816;SDS011;6979;52.116;5.286;2023-05-24T01:12:31;5.20;;;2.83;;
13816;SDS011;6979;52.116;5.286;2023-05-24T01:15:10;5.70;;;2.93;;
13816;SDS011;6979;52.116;5.286;2023-05-24T01:17:48;5.07;;;2.50;;
13816;SDS011;6979;52.116;5.286;2023-05-24T01:20:20;7.77;;;2.77;;
13816;SDS011;6979;52.116;5.286;2023-05-24T01:22:55;5.80;;;2.70;;
13816;SDS011;6979;52.116;5.286;2023-05-24T01:28:27;5.30;;;2.60;;
13816;SDS011;6979;52.116;5.286;2023-05-24T01:30:56;4.70;;;2.77;;
13816;SDS011;6979;52.116;5.286;2023-05-24T01:33:25;5.57;;;2.70;;
13816;SDS011;6979;52.116;5.286;2023-05-24T01:35:52;3.23;;;2.70;;
13816;SDS011;6979;52.116;5.286;2023-05-24T01:38:19;6.13;;;2.60;;
13816;SDS011;6979;52.116;5.286;2023-05-24T01:40:46;6.47;;;3.10;;
13816;SDS011;6979;52.116;5.286;2023-05-24T01:43:21;6.73;;;3.50;;
13816;SDS011;6979;52.116;5.286;2023-05-24T01:45:56;5.97;;;2.83;;
13816;SDS011;6979;52.116;5.286;2023-05-24T01:48:30;6.60;;;2.90;;
13816;SDS011;6979;52.116;5.286;2023-05-24T01:51:04;7.30;;;3.93;;
13816;SDS011;6979;52.116;5.286;2023-05-24T01:53:33;6.77;;;2.60;;
13816;SDS011;6979;52.116;5.286;2023-05-24T01:56:04;4.20;;;2.40;;
13816;SDS011;6979;52.116;5.286;2023-05-24T01:58:32;7.57;;;2.83;;
13816;SDS011;6979;52.116;5.286;2023-05-24T02:01:02;6.70;;;2.63;;
13816;SDS011;6979;52.116;5.286;2023-05-24T02:03:30;5.63;;;3.40;;
13816;SDS011;6979;52.116;5.286;2023-05-24T02:05:56;7.00;;;3.47;;
13816;SDS011;6979;52.116;5.286;2023-05-24T02:08:23;8.87;;;3.50;;
13816;SDS011;6979;52.116;5.286;2023-05-24T02:10:50;4.70;;;2.90;;
13816;SDS011;6979;52.116;5.286;2023-05-24T02:13:17;6.53;;;3.17;;
13816;SDS011;6979;52.116;5.286;2023-05-24T02:15:44;7.07;;;4.40;;
13816;SDS011;6979;52.116;5.286;2023-05-24T02:18:13;5.83;;;3.60;;
13816;SDS011;6979;52.116;5.286;2023-05-24T02:20:42;5.73;;;3.37;;
13816;SDS011;6979;52.116;5.286;2023-05-24T02:23:09;6.77;;;2.97;;
13816;SDS011;6979;52.116;5.286;2023-05-24T02:25:36;10.27;;;3.73;;
13816;SDS011;6979;52.116;5.286;2023-05-24T02:28:03;6.87;;;3.20;;
13816;SDS011;6979;52.116;5.286;2023-05-24T02:30:30;7.50;;;3.70;;
13816;SDS011;6979;52.116;5.286;2023-05-24T02:32:57;6.60;;;2.90;;
13816;SDS011;6979;52.116;5.286;2023-05-24T02:35:26;5.73;;;3.63;;
13816;SDS011;6979;52.116;5.286;2023-05-24T02:37:52;4.77;;;2.90;;
13816;SDS011;6979;52.116;5.286;2023-05-24T02:40:22;6.27;;;3.00;;
13816;SDS011;6979;52.116;5.286;2023-05-24T02:42:50;5.63;;;2.83;;
13816;SDS011;6979;52.116;5.286;2023-05-24T02:45:17;4.53;;;3.57;;
13816;SDS011;6979;52.116;5.286;2023-05-24T02:47:44;4.60;;;2.87;;
13816;SDS011;6979;52.116;5.286;2023-05-24T02:50:11;6.37;;;3.20;;
13816;SDS011;6979;52.116;5.286;2023-05-24T02:52:40;4.63;;;2.77;;
13816;SDS011;6979;52.116;5.286;2023-05-24T02:55:07;6.07;;;3.00;;
13816;SDS011;6979;52.116;5.286;2023-05-24T02:57:34;7.13;;;3.30;;
13816;SDS011;6979;52.116;5.286;2023-05-24T03:00:02;4.03;;;2.80;;
13816;SDS011;6979;52.116;5.286;2023-05-24T03:02:30;6.73;;;3.10;;
13816;SDS011;6979;52.116;5.286;2023-05-24T03:04:58;7.83;;;3.07;;
13816;SDS011;6979;52.116;5.286;2023-05-24T03:07:25;5.97;;;3.27;;
13816;SDS011;6979;52.116;5.286;2023-05-24T03:09:53;5.13;;;2.83;;
13816;SDS011;6979;52.116;5.286;2023-05-24T03:12:20;4.97;;;2.93;;
13816;SDS011;6979;52.116;5.286;2023-05-24T03:14:49;7.53;;;3.23;;
13816;SDS011;6979;52.116;5.286;2023-05-24T03:17:16;3.77;;;2.73;;
13816;SDS011;6979;52.116;5.286;2023-05-24T03:19:43;5.90;;;2.90;;
13816;SDS011;6979;52.116;5.286;2023-05-24T03:22:11;6.03;;;2.90;;
13816;SDS011;6979;52.116;5.286;2023-05-24T03:24:38;8.73;;;3.23;;
13816;SDS011;6979;52.116;5.286;2023-05-24T03:27:07;3.77;;;2.73;;
13816;SDS011;6979;52.116;5.286;2023-05-24T03:29:34;3.87;;;2.87;;
13816;SDS011;6979;52.116;5.286;2023-05-24T03:32:01;5.20;;;2.63;;
13816;SDS011;6979;52.116;5.286;2023-05-24T03:34:28;6.23;;;3.37;;
13816;SDS011;6979;52.116;5.286;2023-05-24T03:36:56;6.10;;;2.70;;
13816;SDS011;6979;52.116;5.286;2023-05-24T03:39:23;4.97;;;2.73;;
13816;SDS011;6979;52.116;5.286;2023-05-24T03:41:58;5.27;;;2.53;;
13816;SDS011;6979;52.116;5.286;2023-05-24T03:44:26;5.23;;;3.10;;
13816;SDS011;6979;52.116;5.286;2023-05-24T03:46:53;7.10;;;3.20;;
13816;SDS011;6979;52.116;5.286;2023-05-24T03:49:20;4.73;;;2.83;;
13816;SDS011;6979;52.116;5.286;2023-05-24T03:51:47;2.87;;;2.53;;
13816;SDS011;6979;52.116;5.286;2023-05-24T03:54:16;5.80;;;2.60;;
13816;SDS011;6979;52.116;5.286;2023-05-24T03:56:43;6.10;;;2.77;;
13816;SDS011;6979;52.116;5.286;2023-05-24T03:59:10;5.43;;;2.77;;
13816;SDS011;6979;52.116;5.286;2023-05-24T04:01:38;3.27;;;2.67;;
13816;SDS011;6979;52.116;5.286;2023-05-24T04:04:05;3.97;;;3.57;;
13816;SDS011;6979;52.116;5.286;2023-05-24T04:06:32;5.73;;;3.07;;
13816;SDS011;6979;52.116;5.286;2023-05-24T04:09:01;4.30;;;3.00;;
13816;SDS011;6979;52.116;5.286;2023-05-24T04:11:29;6.47;;;2.83;;
13816;SDS011;6979;52.116;5.286;2023-05-24T04:13:56;4.07;;;3.10;;
13816;SDS011;6979;52.116;5.286;2023-05-24T04:16:25;4.40;;;2.73;;
13816;SDS011;6979;52.116;5.286;2023-05-24T04:18:54;3.37;;;2.77;;
13816;SDS011;6979;52.116;5.286;2023-05-24T04:21:21;4.60;;;3.03;;
13816;SDS011;6979;52.116;5.286;2023-05-24T04:23:48;4.83;;;2.80;;
13816;SDS011;6979;52.116;5.286;2023-05-24T04:26:15;4.87;;;3.17;;
13816;SDS011;6979;52.116;5.286;2023-05-24T04:28:42;4.47;;;2.53;;
13816;SDS011;6979;52.116;5.286;2023-05-24T04:31:12;4.73;;;2.70;;
13816;SDS011;6979;52.116;5.286;2023-05-24T04:33:40;5.60;;;2.93;;
13816;SDS011;6979;52.116;5.286;2023-05-24T04:36:08;4.93;;;3.30;;
13816;SDS011;6979;52.116;5.286;2023-05-24T04:38:37;5.50;;;2.80;;
13816;SDS011;6979;52.116;5.286;2023-05-24T04:41:05;4.37;;;2.90;;
13816;SDS011;6979;52.116;5.286;2023-05-24T04:43:34;8.10;;;3.67;;
13816;SDS011;6979;52.116;5.286;2023-05-24T04:46:01;4.90;;;2.77;;
13816;SDS011;6979;52.116;5.286;2023-05-24T04:48:28;7.57;;;3.63;;
13816;SDS011;6979;52.116;5.286;2023-05-24T04:50:55;6.30;;;3.30;;
13816;SDS011;6979;52.116;5.286;2023-05-24T04:53:24;6.60;;;3.90;;
13816;SDS011;6979;52.116;5.286;2023-05-24T04:55:51;8.47;;;4.10;;
13816;SDS011;6979;52.116;5.286;2023-05-24T04:58:18;5.97;;;4.30;;
13816;SDS011;6979;52.116;5.286;2023-05-24T05:00:45;8.37;;;4.17;;
13816;SDS011;6979;52.116;5.286;2023-05-24T05:03:12;13.40;;;4.57;;
13816;SDS011;6979;52.116;5.286;2023-05-24T05:05:39;5.87;;;4.10;;
13816;SDS011;6979;52.116;5.286;2023-05-24T05:08:06;5.57;;;4.23;;
13816;SDS011;6979;52.116;5.286;2023-05-24T05:10:34;9.13;;;4.30;;
13816;SDS011;6979;52.116;5.286;2023-05-24T05:13:01;9.33;;;4.37;;
13816;SDS011;6979;52.116;5.286;2023-05-24T05:15:28;7.80;;;4.30;;
13816;SDS011;6979;52.116;5.286;2023-05-24T05:17:55;10.43;;;4.30;;
13816;SDS011;6979;52.116;5.286;2023-05-24T05:20:22;9.13;;;4.50;;
13816;SDS011;6979;52.116;5.286;2023-05-24T05:22:49;5.80;;;4.10;;
13816;SDS011;6979;52.116;5.286;2023-05-24T05:25:16;8.27;;;4.27;;
13816;SDS011;6979;52.116;5.286;2023-05-24T05:27:45;8.90;;;4.67;;
13816;SDS011;6979;52.116;5.286;2023-05-24T05:30:12;7.07;;;3.93;;
13816;SDS011;6979;52.116;5.286;2023-05-24T05:32:39;7.53;;;4.27;;
13816;SDS011;6979;52.116;5.286;2023-05-24T05:35:06;7.33;;;4.03;;
13816;SDS011;6979;52.116;5.286;2023-05-24T05:37:34;5.80;;;3.80;;
13816;SDS011;6979;52.116;5.286;2023-05-24T05:40:00;7.57;;;3.70;;
13816;SDS011;6979;52.116;5.286;2023-05-24T05:42:28;8.63;;;4.20;;
13816;SDS011;6979;52.116;5.286;2023-05-24T05:44:57;8.93;;;4.70;;
13816;SDS011;6979;52.116;5.286;2023-05-24T05:47:23;8.37;;;4.23;;
13816;SDS011;6979;52.116;5.286;2023-05-24T05:49:50;9.27;;;4.67;;
13816;SDS011;6979;52.116;5.286;2023-05-24T05:52:17;8.50;;;4.53;;
13816;SDS011;6979;52.116;5.286;2023-05-24T05:54:44;12.47;;;4.37;;
13816;SDS011;6979;52.116;5.286;2023-05-24T05:57:11;7.90;;;3.73;;
13816;SDS011;6979;52.116;5.286;2023-05-24T05:59:40;10.27;;;4.40;;
13816;SDS011;6979;52.116;5.286;2023-05-24T06:02:08;7.50;;;3.53;;
13816;SDS011;6979;52.116;5.286;2023-05-24T06:04:36;11.50;;;3.87;;
13816;SDS011;6979;52.116;5.286;2023-05-24T06:07:04;8.23;;;4.43;;
13816;SDS011;6979;52.116;5.286;2023-05-24T06:09:32;9.50;;;4.83;;
13816;SDS011;6979;52.116;5.286;2023-05-24T06:11:59;7.50;;;3.53;;
13816;SDS011;6979;52.116;5.286;2023-05-24T06:14:26;7.83;;;3.87;;
13816;SDS011;6979;52.116;5.286;2023-05-24T06:16:53;7.20;;;3.73;;
13816;SDS011;6979;52.116;5.286;2023-05-24T06:19:21;5.03;;;3.47;;
13816;SDS011;6979;52.116;5.286;2023-05-24T06:21:49;7.03;;;3.70;;
13816;SDS011;6979;52.116;5.286;2023-05-24T06:24:16;7.80;;;4.63;;
13816;SDS011;6979;52.116;5.286;2023-05-24T06:26:45;8.97;;;4.13;;
13816;SDS011;6979;52.116;5.286;2023-05-24T06:29:12;7.37;;;4.00;;
13816;SDS011;6979;52.116;5.286;2023-05-24T06:31:39;7.70;;;3.67;;
13816;SDS011;6979;52.116;5.286;2023-05-24T06:34:07;7.13;;;3.47;;
13816;SDS011;6979;52.116;5.286;2023-05-24T06:36:35;7.67;;;3.90;;
13816;SDS011;6979;52.116;5.286;2023-05-24T06:39:05;7.03;;;4.07;;
13816;SDS011;6979;52.116;5.286;2023-05-24T06:41:32;12.40;;;4.33;;
13816;SDS011;6979;52.116;5.286;2023-05-24T06:44:00;6.10;;;3.40;;
13816;SDS011;6979;52.116;5.286;2023-05-24T06:46:27;6.30;;;4.30;;
13816;SDS011;6979;52.116;5.286;2023-05-24T06:48:54;7.10;;;3.40;;
13816;SDS011;6979;52.116;5.286;2023-05-24T06:51:21;9.27;;;3.50;;
13816;SDS011;6979;52.116;5.286;2023-05-24T06:53:49;7.60;;;3.43;;
13816;SDS011;6979;52.116;5.286;2023-05-24T06:56:16;5.17;;;2.80;;
13816;SDS011;6979;52.116;5.286;2023-05-24T06:58:43;9.33;;;4.17;;
13816;SDS011;6979;52.116;5.286;2023-05-24T07:01:09;6.43;;;3.13;;
13816;SDS011;6979;52.116;5.286;2023-05-24T07:03:37;10.03;;;3.80;;
13816;SDS011;6979;52.116;5.286;2023-05-24T07:06:04;7.43;;;3.10;;
13816;SDS011;6979;52.116;5.286;2023-05-24T07:08:31;5.77;;;3.50;;
13816;SDS011;6979;52.116;5.286;2023-05-24T07:11:00;7.37;;;3.23;;
13816;SDS011;6979;52.116;5.286;2023-05-24T07:13:27;6.93;;;3.13;;
13816;SDS011;6979;52.116;5.286;2023-05-24T07:15:57;5.97;;;3.20;;
13816;SDS011;6979;52.116;5.286;2023-05-24T07:18:24;7.70;;;3.10;;
13816;SDS011;6979;52.116;5.286;2023-05-24T07:20:50;5.03;;;3.13;;
13816;SDS011;6979;52.116;5.286;2023-05-24T07:23:18;5.77;;;3.43;;
13816;SDS011;6979;52.116;5.286;2023-05-24T07:25:45;7.87;;;2.93;;
13816;SDS011;6979;52.116;5.286;2023-05-24T07:28:15;5.67;;;3.20;;
13816;SDS011;6979;52.116;5.286;2023-05-24T07:30:44;6.07;;;2.77;;
13816;SDS011;6979;52.116;5.286;2023-05-24T07:33:11;6.30;;;2.87;;
13816;SDS011;6979;52.116;5.286;2023-05-24T07:35:38;6.07;;;3.00;;
13816;SDS011;6979;52.116;5.286;2023-05-24T07:38:11;7.90;;;3.53;;
13816;SDS011;6979;52.116;5.286;2023-05-24T07:40:41;6.60;;;2.77;;
13816;SDS011;6979;52.116;5.286;2023-05-24T07:43:08;6.30;;;3.03;;
13816;SDS011;6979;52.116;5.286;2023-05-24T07:45:36;5.27;;;2.93;;
13816;SDS011;6979;52.116;5.286;2023-05-24T07:48:03;8.57;;;3.80;;
13816;SDS011;6979;52.116;5.286;2023-05-24T07:50:30;7.73;;;3.00;;
13816;SDS011;6979;52.116;5.286;2023-05-24T07:52:57;6.20;;;3.47;;
13816;SDS011;6979;52.116;5.286;2023-05-24T07:55:24;7.47;;;2.73;;
13816;SDS011;6979;52.116;5.286;2023-05-24T07:57:52;7.30;;;2.90;;
13816;SDS011;6979;52.116;5.286;2023-05-24T08:00:18;6.63;;;3.10;;
13816;SDS011;6979;52.116;5.286;2023-05-24T08:02:47;7.37;;;3.67;;
13816;SDS011;6979;52.116;5.286;2023-05-24T08:05:14;11.13;;;3.40;;
13816;SDS011;6979;52.116;5.286;2023-05-24T08:07:41;6.33;;;3.03;;
13816;SDS011;6979;52.116;5.286;2023-05-24T08:10:08;7.07;;;3.27;;
13816;SDS011;6979;52.116;5.286;2023-05-24T08:12:37;5.97;;;2.90;;
13816;SDS011;6979;52.116;5.286;2023-05-24T08:15:07;5.30;;;2.60;;
13816;SDS011;6979;52.116;5.286;2023-05-24T08:17:34;5.87;;;2.90;;
13816;SDS011;6979;52.116;5.286;2023-05-24T08:20:03;7.40;;;3.40;;
13816;SDS011;6979;52.116;5.286;2023-05-24T08:22:33;4.20;;;2.63;;
13816;SDS011;6979;52.116;5.286;2023-05-24T08:25:01;7.33;;;3.60;;
13816;SDS011;6979;52.116;5.286;2023-05-24T08:27:28;5.50;;;3.43;;
13816;SDS011;6979;52.116;5.286;2023-05-24T08:29:55;4.67;;;2.93;;
13816;SDS011;6979;52.116;5.286;2023-05-24T08:32:22;4.73;;;2.53;;
13816;SDS011;6979;52.116;5.286;2023-05-24T08:34:48;5.87;;;3.17;;
13816;SDS011;6979;52.116;5.286;2023-05-24T08:37:16;7.57;;;3.00;;
13816;SDS011;6979;52.116;5.286;2023-05-24T08:39:44;7.07;;;2.93;;
13816;SDS011;6979;52.116;5.286;2023-05-24T08:42:11;6.17;;;2.90;;
13816;SDS011;6979;52.116;5.286;2023-05-24T08:44:40;5.57;;;3.03;;
13816;SDS011;6979;52.116;5.286;2023-05-24T08:47:10;9.37;;;3.23;;
13816;SDS011;6979;52.116;5.286;2023-05-24T08:49:39;6.07;;;2.97;;
13816;SDS011;6979;52.116;5.286;2023-05-24T08:52:09;3.03;;;2.53;;
13816;SDS011;6979;52.116;5.286;2023-05-24T08:54:41;4.87;;;3.03;;
13816;SDS011;6979;52.116;5.286;2023-05-24T08:57:08;3.83;;;3.10;;
13816;SDS011;6979;52.116;5.286;2023-05-24T08:59:37;5.63;;;3.07;;
13816;SDS011;6979;52.116;5.286;2023-05-24T09:02:05;5.20;;;2.70;;
13816;SDS011;6979;52.116;5.286;2023-05-24T09:04:34;6.27;;;2.63;;
13816;SDS011;6979;52.116;5.286;2023-05-24T09:07:04;8.43;;;3.27;;
13816;SDS011;6979;52.116;5.286;2023-05-24T09:09:32;5.27;;;2.70;;
13816;SDS011;6979;52.116;5.286;2023-05-24T09:12:03;6.40;;;3.00;;
13816;SDS011;6979;52.116;5.286;2023-05-24T09:14:32;6.10;;;2.60;;
13816;SDS011;6979;52.116;5.286;2023-05-24T09:16:59;4.40;;;2.63;;
13816;SDS011;6979;52.116;5.286;2023-05-24T09:19:27;6.33;;;2.97;;
13816;SDS011;6979;52.116;5.286;2023-05-24T09:21:54;7.20;;;2.73;;
13816;SDS011;6979;52.116;5.286;2023-05-24T09:24:22;4.73;;;3.13;;
13816;SDS011;6979;52.116;5.286;2023-05-24T09:26:49;4.43;;;2.70;;
13816;SDS011;6979;52.116;5.286;2023-05-24T09:29:17;6.03;;;2.77;;
13816;SDS011;6979;52.116;5.286;2023-05-24T09:31:48;4.90;;;3.10;;
13816;SDS011;6979;52.116;5.286;2023-05-24T09:34:15;4.13;;;2.17;;
13816;SDS011;6979;52.116;5.286;2023-05-24T09:36:44;4.53;;;2.40;;
13816;SDS011;6979;52.116;5.286;2023-05-24T09:39:12;2.53;;;2.33;;
13816;SDS011;6979;52.116;5.286;2023-05-24T09:41:42;4.00;;;2.70;;
13816;SDS011;6979;52.116;5.286;2023-05-24T09:44:11;3.87;;;2.60;;
13816;SDS011;6979;52.116;5.286;2023-05-24T09:46:40;4.20;;;2.40;;
13816;SDS011;6979;52.116;5.286;2023-05-24T09:49:07;4.37;;;2.83;;
13816;SDS011;6979;52.116;5.286;2023-05-24T09:51:35;5.03;;;2.57;;
13816;SDS011;6979;52.116;5.286;2023-05-24T09:54:03;4.67;;;2.80;;
13816;SDS011;6979;52.116;5.286;2023-05-24T09:56:32;3.80;;;2.70;;
13816;SDS011;6979;52.116;5.286;2023-05-24T09:59:04;4.87;;;3.03;;
13816;SDS011;6979;52.116;5.286;2023-05-24T10:01:32;4.70;;;2.63;;
13816;SDS011;6979;52.116;5.286;2023-05-24T10:04:01;4.37;;;2.40;;
13816;SDS011;6979;52.116;5.286;2023-05-24T10:06:31;5.13;;;3.10;;
13816;SDS011;6979;52.116;5.286;2023-05-24T10:09:01;4.73;;;2.83;;
13816;SDS011;6979;52.116;5.286;2023-05-24T10:11:31;3.07;;;2.73;;
13816;SDS011;6979;52.116;5.286;2023-05-24T10:14:04;6.10;;;2.83;;
13816;SDS011;6979;52.116;5.286;2023-05-24T10:16:32;4.63;;;2.80;;
13816;SDS011;6979;52.116;5.286;2023-05-24T10:19:03;4.50;;;2.43;;
13816;SDS011;6979;52.116;5.286;2023-05-24T10:21:33;5.43;;;2.87;;
13816;SDS011;6979;52.116;5.286;2023-05-24T10:24:03;6.23;;;2.63;;
13816;SDS011;6979;52.116;5.286;2023-05-24T10:26:34;4.87;;;2.80;;
13816;SDS011;6979;52.116;5.286;2023-05-24T10:29:05;3.67;;;2.57;;
13816;SDS011;6979;52.116;5.286;2023-05-24T10:31:36;5.70;;;3.07;;
13816;SDS011;6979;52.116;5.286;2023-05-24T10:34:06;5.67;;;3.43;;
13816;SDS011;6979;52.116;5.286;2023-05-24T10:36:35;3.57;;;2.40;;
13816;SDS011;6979;52.116;5.286;2023-05-24T10:39:07;5.63;;;2.53;;
13816;SDS011;6979;52.116;5.286;2023-05-24T10:41:39;3.83;;;2.47;;
13816;SDS011;6979;52.116;5.286;2023-05-24T10:44:10;4.30;;;3.20;;
13816;SDS011;6979;52.116;5.286;2023-05-24T10:49:30;3.77;;;2.27;;
13816;SDS011;6979;52.116;5.286;2023-05-24T10:51:59;4.33;;;2.37;;
13816;SDS011;6979;52.116;5.286;2023-05-24T10:54:27;3.43;;;2.10;;
13816;SDS011;6979;52.116;5.286;2023-05-24T10:56:54;4.90;;;2.80;;
13816;SDS011;6979;52.116;5.286;2023-05-24T10:59:27;4.27;;;2.60;;
13816;SDS011;6979;52.116;5.286;2023-05-24T11:01:58;3.30;;;2.47;;
13816;SDS011;6979;52.116;5.286;2023-05-24T11:04:30;4.63;;;2.90;;
13816;SDS011;6979;52.116;5.286;2023-05-24T11:07:00;4.17;;;2.73;;
13816;SDS011;6979;52.116;5.286;2023-05-24T11:09:28;4.07;;;2.70;;
13816;SDS011;6979;52.116;5.286;2023-05-24T11:11:57;3.97;;;2.43;;
13816;SDS011;6979;52.116;5.286;2023-05-24T11:14:29;3.53;;;2.23;;
13816;SDS011;6979;52.116;5.286;2023-05-24T11:16:56;6.30;;;3.00;;
13816;SDS011;6979;52.116;5.286;2023-05-24T11:19:29;6.00;;;2.70;;
13816;SDS011;6979;52.116;5.286;2023-05-24T11:22:00;5.30;;;2.80;;
13816;SDS011;6979;52.116;5.286;2023-05-24T11:24:28;5.57;;;3.03;;
13816;SDS011;6979;52.116;5.286;2023-05-24T11:26:55;6.13;;;3.13;;
13816;SDS011;6979;52.116;5.286;2023-05-24T11:29:23;4.67;;;2.70;;
13816;SDS011;6979;52.116;5.286;2023-05-24T11:31:50;6.13;;;3.43;;
13816;SDS011;6979;52.116;5.286;2023-05-24T11:34:18;3.97;;;2.80;;
13816;SDS011;6979;52.116;5.286;2023-05-24T11:36:46;6.40;;;2.53;;
13816;SDS011;6979;52.116;5.286;2023-05-24T11:39:14;3.13;;;2.40;;
13816;SDS011;6979;52.116;5.286;2023-05-24T11:41:44;2.70;;;2.20;;
13816;SDS011;6979;52.116;5.286;2023-05-24T11:44:15;3.47;;;2.37;;
13816;SDS011;6979;52.116;5.286;2023-05-24T11:46:42;4.43;;;3.33;;
13816;SDS011;6979;52.116;5.286;2023-05-24T11:49:11;2.80;;;2.30;;
13816;SDS011;6979;52.116;5.286;2023-05-24T11:51:38;4.53;;;2.40;;
13816;SDS011;6979;52.116;5.286;2023-05-24T11:54:07;5.03;;;2.60;;
13816;SDS011;6979;52.116;5.286;2023-05-24T11:56:34;3.60;;;2.50;;
13816;SDS011;6979;52.116;5.286;2023-05-24T11:59:08;2.90;;;2.30;;
13816;SDS011;6979;52.116;5.286;2023-05-24T12:01:39;4.07;;;2.60;;
13816;SDS011;6979;52.116;5.286;2023-05-24T12:04:06;3.93;;;2.67;;
13816;SDS011;6979;52.116;5.286;2023-05-24T12:06:34;3.20;;;2.43;;
13816;SDS011;6979;52.116;5.286;2023-05-24T12:09:03;4.17;;;2.03;;
13816;SDS011;6979;52.116;5.286;2023-05-24T12:11:34;6.17;;;2.43;;
13816;SDS011;6979;52.116;5.286;2023-05-24T12:14:03;2.40;;;2.20;;
13816;SDS011;6979;52.116;5.286;2023-05-24T12:16:30;4.17;;;2.50;;
13816;SDS011;6979;52.116;5.286;2023-05-24T12:18:57;3.07;;;2.10;;
13816;SDS011;6979;52.116;5.286;2023-05-24T12:21:24;4.37;;;2.50;;
13816;SDS011;6979;52.116;5.286;2023-05-24T12:24:03;3.83;;;2.30;;
13816;SDS011;6979;52.116;5.286;2023-05-24T12:26:35;3.47;;;2.10;;
13816;SDS011;6979;52.116;5.286;2023-05-24T12:29:02;2.47;;;2.03;;
13816;SDS011;6979;52.116;5.286;2023-05-24T12:31:30;3.10;;;2.00;;
13816;SDS011;6979;52.116;5.286;2023-05-24T12:33:58;3.37;;;2.37;;
13816;SDS011;6979;52.116;5.286;2023-05-24T12:36:26;4.57;;;2.33;;
13816;SDS011;6979;52.116;5.286;2023-05-24T12:38:55;2.63;;;2.37;;
13816;SDS011;6979;52.116;5.286;2023-05-24T12:41:22;3.37;;;2.97;;
13816;SDS011;6979;52.116;5.286;2023-05-24T12:43:51;3.00;;;2.07;;
13816;SDS011;6979;52.116;5.286;2023-05-24T12:46:18;4.93;;;2.00;;
13816;SDS011;6979;52.116;5.286;2023-05-24T12:48:45;3.80;;;2.00;;
13816;SDS011;6979;52.116;5.286;2023-05-24T12:51:12;5.00;;;2.40;;
13816;SDS011;6979;52.116;5.286;2023-05-24T12:53:38;3.07;;;2.70;;
13816;SDS011;6979;52.116;5.286;2023-05-24T12:56:07;3.63;;;2.73;;
13816;SDS011;6979;52.116;5.286;2023-05-24T12:58:34;3.83;;;2.53;;
13816;SDS011;6979;52.116;5.286;2023-05-24T13:01:02;5.70;;;2.17;;
13816;SDS011;6979;52.116;5.286;2023-05-24T13:03:29;2.80;;;2.20;;
13816;SDS011;6979;52.116;5.286;2023-05-24T13:05:56;3.57;;;2.43;;
13816;SDS011;6979;52.116;5.286;2023-05-24T13:08:24;2.50;;;1.93;;
13816;SDS011;6979;52.116;5.286;2023-05-24T13:10:52;2.80;;;2.50;;
13816;SDS011;6979;52.116;5.286;2023-05-24T13:13:19;2.93;;;2.30;;
13816;SDS011;6979;52.116;5.286;2023-05-24T13:15:48;2.40;;;2.20;;
13816;SDS011;6979;52.116;5.286;2023-05-24T13:18:16;2.67;;;2.13;;
13816;SDS011;6979;52.116;5.286;2023-05-24T13:20:43;4.83;;;3.10;;
13816;SDS011;6979;52.116;5.286;2023-05-24T13:23:10;3.67;;;2.13;;
13816;SDS011;6979;52.116;5.286;2023-05-24T13:25:37;2.93;;;2.20;;
13816;SDS011;6979;52.116;5.286;2023-05-24T13:28:04;3.47;;;2.27;;
13816;SDS011;6979;52.116;5.286;2023-05-24T13:30:31;3.77;;;2.10;;
13816;SDS011;6979;52.116;5.286;2023-05-24T13:32:58;3.87;;;2.47;;
13816;SDS011;6979;52.116;5.286;2023-05-24T13:35:28;5.10;;;2.50;;
13816;SDS011;6979;52.116;5.286;2023-05-24T13:37:56;3.67;;;2.30;;
13816;SDS011;6979;52.116;5.286;2023-05-24T13:40:23;3.10;;;2.60;;
13816;SDS011;6979;52.116;5.286;2023-05-24T13:42:50;3.53;;;2.57;;
13816;SDS011;6979;52.116;5.286;2023-05-24T13:45:17;2.87;;;2.50;;
13816;SDS011;6979;52.116;5.286;2023-05-24T13:47:45;3.80;;;2.70;;
13816;SDS011;6979;52.116;5.286;2023-05-24T13:50:12;3.93;;;2.60;;
13816;SDS011;6979;52.116;5.286;2023-05-24T13:52:40;8.80;;;2.30;;
13816;SDS011;6979;52.116;5.286;2023-05-24T13:55:07;3.90;;;2.37;;
13816;SDS011;6979;52.116;5.286;2023-05-24T13:57:35;3.87;;;2.60;;
13816;SDS011;6979;52.116;5.286;2023-05-24T14:00:03;7.23;;;2.43;;
13816;SDS011;6979;52.116;5.286;2023-05-24T14:02:33;4.37;;;2.73;;
13816;SDS011;6979;52.116;5.286;2023-05-24T14:04:59;4.80;;;2.30;;
13816;SDS011;6979;52.116;5.286;2023-05-24T14:07:26;5.70;;;2.73;;
13816;SDS011;6979;52.116;5.286;2023-05-24T14:09:56;3.13;;;2.20;;
13816;SDS011;6979;52.116;5.286;2023-05-24T14:12:23;3.33;;;1.90;;
13816;SDS011;6979;52.116;5.286;2023-05-24T14:14:51;2.43;;;1.80;;
13816;SDS011;6979;52.116;5.286;2023-05-24T14:17:18;3.10;;;2.23;;
13816;SDS011;6979;52.116;5.286;2023-05-24T14:19:45;4.53;;;2.33;;
13816;SDS011;6979;52.116;5.286;2023-05-24T14:22:13;3.20;;;2.20;;
13816;SDS011;6979;52.116;5.286;2023-05-24T14:24:40;4.40;;;2.90;;
13816;SDS011;6979;52.116;5.286;2023-05-24T14:27:08;4.53;;;2.97;;
13816;SDS011;6979;52.116;5.286;2023-05-24T14:29:35;3.20;;;2.83;;
13816;SDS011;6979;52.116;5.286;2023-05-24T14:32:02;4.63;;;2.30;;
13816;SDS011;6979;52.116;5.286;2023-05-24T14:34:29;3.27;;;2.60;;
13816;SDS011;6979;52.116;5.286;2023-05-24T14:37:02;2.73;;;2.10;;
13816;SDS011;6979;52.116;5.286;2023-05-24T14:39:30;2.33;;;1.93;;
13816;SDS011;6979;52.116;5.286;2023-05-24T14:41:57;1.97;;;1.87;;
13816;SDS011;6979;52.116;5.286;2023-05-24T14:44:25;2.70;;;2.20;;
13816;SDS011;6979;52.116;5.286;2023-05-24T14:46:52;3.47;;;2.43;;
13816;SDS011;6979;52.116;5.286;2023-05-24T14:49:19;3.70;;;2.10;;
13816;SDS011;6979;52.116;5.286;2023-05-24T14:51:46;4.23;;;2.70;;
13816;SDS011;6979;52.116;5.286;2023-05-24T14:54:13;3.87;;;2.33;;
13816;SDS011;6979;52.116;5.286;2023-05-24T14:56:40;2.70;;;2.17;;
13816;SDS011;6979;52.116;5.286;2023-05-24T14:59:07;2.93;;;2.00;;
13816;SDS011;6979;52.116;5.286;2023-05-24T15:01:35;4.47;;;2.57;;
13816;SDS011;6979;52.116;5.286;2023-05-24T15:04:02;3.17;;;2.30;;
13816;SDS011;6979;52.116;5.286;2023-05-24T15:06:29;3.20;;;2.17;;
13816;SDS011;6979;52.116;5.286;2023-05-24T15:08:59;3.80;;;2.27;;
13816;SDS011;6979;52.116;5.286;2023-05-24T15:11:27;2.37;;;2.17;;